• Join FlightAware (Why Join?)
  • Login
  • US Flag 
05:46PM EDT


 

Airport Tracker/Info


-or-


 

Live Flight TrackerFlight Track Log ✈ N27901 ✈ 20-Jun-2013 ✈ KLAX - KIAH

Flight Track Log - Related Links

Times and Time Zones

All times are in EDT time to prevent confusion due to time zone crossing. See the N27901 flight status page for this flight to view local times or setup timezone preferences in your user account.

Time Position Orientation Groundspeed Altitude Reporting Facility
EDT Latitude Longitude Course Direction KTS MPH feet Rate Location/Type
03:44AM 33.9340 -118.4360 258° West 174 200 1,600  Level FlightAware
03:44AM 33.9300 -118.4450 242° Southwest 186 214 1,900 1,320 Climbing FlightAware
03:44AM 33.9190 -118.4590 227° Southwest 214 246 2,200 1,080 Climbing FlightAware
03:45AM 33.9110 -118.4670 220° Southwest 243 280 2,400 1,920 Climbing FlightAware
03:46AM 33.8680 -118.5110 220° Southwest 271 312 4,700 3,180 Climbing FlightAware
03:46AM 33.8220 -118.5220 191° South 285 328 6,700 4,800 Climbing FlightAware
03:46AM 33.7850 -118.5210 179° South 292 336 8,100 2,820 Climbing FlightAware
03:47AM 33.7530 -118.5210 180° South 300 345 9,200 2,700 Climbing FlightAware
03:47AM 33.7110 -118.5110 169° South 319 367 10,600 2,340 Climbing FlightAware
03:47AM 33.6950 -118.4950 140° Southeast 338 389 10,900 1,440 Climbing FlightAware
03:48AM 33.6810 -118.4680 122° Southeast 359 413 11,300 1,560 Climbing FlightAware
03:48AM 33.6650 -118.3840 103° East 402 463 12,400 2,160 Climbing FlightAware
03:49AM 33.6650 -118.2950 90° East 416 479 14,300 2,400 Climbing FlightAware
03:50AM 33.6640 -118.2250 91° East 428 493 15,600 1,980 Climbing FlightAware
03:51AM 33.6630 -118.1070 91° East 442 509 17,700 2,700 Climbing FlightAware
03:51AM 33.6610 -117.9440 91° East 461 531 20,400 3,060 Climbing FlightAware
03:52AM 33.6600 -117.8350 91° East 473 544 22,000 2,220 Climbing FlightAware
03:53AM 33.6580 -117.7280 91° East 484 557 23,500 2,100 Climbing FlightAware
03:54AM 33.6570 -117.6150 91° East 495 570 24,900 2,040 Climbing FlightAware
03:54AM 33.6550 -117.4910 91° East 504 580 26,500 1,740 Climbing FlightAware
03:56AM 33.6720 -117.2700 85° East 519 597 29,000 1,740 Climbing FlightAware
03:57AM 33.7050 -117.0950 77° East 533 613 30,600 1,800 Climbing FlightAware
03:57AM 33.7260 -116.9840 77° East 539 620 31,500 1,800 Climbing FlightAware
03:58AM 33.7500 -116.8550 77° East 533 613 33,100 2,040 Climbing FlightAware
03:59AM 33.7730 -116.7310 77° East 528 608 34,500 1,860 Climbing FlightAware
03:59AM 33.7970 -116.6040 77° East 522 601 35,900 1,800 Climbing FlightAware
04:00AM 33.8150 -116.5030 78° East 518 596 36,900 900 Climbing FlightAware
04:01AM 33.8230 -116.4600 77° East 517 595 37,300 1,200 Climbing FlightAware
04:02AM 33.8620 -116.2470 78° East 517 595 38,800 1,560 Climbing FlightAware
04:02AM 33.8830 -116.1260 78° East 516 594 39,500 900 Climbing FlightAware
04:03AM 33.9020 -116.0100 79° East 517 595 40,100 720 Climbing FlightAware
04:04AM 33.9140 -115.9370 79° East 515 593 40,500 600 Climbing FlightAware
04:04AM 33.9400 -115.7710 79° East 512 589 41,000 240 Climbing FlightAware
04:05AM 33.9650 -115.6300 78° East 512 589 41,000  Level FlightAware
04:06AM 33.9820 -115.5350 78° East 512 589 41,000  Level FlightAware
04:07AM 34.0030 -115.3820 81° East 516 594 41,000  Level FlightAware
04:07AM 34.0230 -115.2570 79° East 516 594 41,000  Level FlightAware
04:08AM 34.0390 -115.1560 79° East 515 593 41,000  Level FlightAware
04:09AM 34.0530 -115.0700 79° East 515 593 41,000  Level FlightAware
04:10AM 34.0710 -114.9550 79° East 515 593 41,000  Level FlightAware
04:10AM 34.0880 -114.8520 79° East 515 593 41,000  Level FlightAware
04:11AM 34.1140 -114.6720 80° East 511 588 41,000  Level FlightAware
04:12AM 34.1320 -114.5450 80° East 509 586 41,000  Level FlightAware
04:13AM 34.1530 -114.4050 80° East 512 589 41,000  Level FlightAware
04:13AM 34.1730 -114.2770 79° East 510 587 41,000  Level FlightAware
04:14AM 34.1900 -114.1590 80° East 510 587 41,000  Level FlightAware
04:15AM 34.2070 -114.0410 80° East 509 586 41,000  Level FlightAware
04:16AM 34.2290 -113.9080 79° East 509 586 41,000  Level FlightAware
04:16AM 34.2470 -113.7700 81° East 510 587 41,000  Level FlightAware
04:17AM 34.2630 -113.6560 80° East 510 587 41,000  Level FlightAware
04:18AM 34.2790 -113.5480 80° East 508 585 41,000  Level FlightAware
04:18AM 34.2980 -113.4150 80° East 508 585 41,000  Level FlightAware
04:19AM 34.3130 -113.3070 80° East 508 585 41,000  Level FlightAware
04:20AM 34.3300 -113.1850 80° East 509 586 41,000  Level FlightAware
04:21AM 34.3470 -113.0610 81° East 510 587 41,000  Level FlightAware
04:21AM 34.3630 -112.9420 81° East 510 587 41,000  Level FlightAware
04:22AM 34.3790 -112.8310 80° East 511 588 41,000  Level FlightAware
04:23AM 34.3940 -112.7190 81° East 511 588 41,000  Level FlightAware
04:23AM 34.4110 -112.5940 81° East 510 587 41,000  Level FlightAware
04:24AM 34.4270 -112.4700 81° East 508 585 41,000  Level FlightAware
04:25AM 34.4400 -112.3720 81° East 510 587 41,000  Level FlightAware
04:26AM 34.4550 -112.2560 81° East 510 587 41,000  Level FlightAware
04:27AM 34.4870 -112.0130 81° East 511 588 41,000  Level FlightAware
04:28AM 34.5040 -111.8800 81° East 511 588 41,000  Level FlightAware
04:28AM 34.5200 -111.7600 81° East 505 581 41,000  Level FlightAware
04:29AM 34.5350 -111.6430 81° East 508 585 41,000  Level FlightAware
04:30AM 34.5490 -111.5290 81° East 509 586 41,000  Level FlightAware
04:30AM 34.5630 -111.4120 82° East 511 588 41,000  Level FlightAware
04:31AM 34.5790 -111.2880 81° East 510 587 41,000  Level FlightAware
04:32AM 34.5930 -111.1730 82° East 512 589 41,000  Level FlightAware
04:32AM 34.6040 -111.0780 82° East 516 594 41,000  Level FlightAware
04:33AM 34.6220 -110.9340 81° East 521 600 41,000  Level FlightAware
04:34AM 34.6360 -110.8120 82° East 520 598 41,000  Level FlightAware
04:34AM 34.6500 -110.6960 82° East 519 597 41,000  Level FlightAware
04:36AM 34.6760 -110.4750 82° East 515 593 41,000  Level FlightAware
04:36AM 34.6890 -110.3590 82° East 512 589 41,000  Level FlightAware
04:37AM 34.7040 -110.2320 82° East 513 590 41,000  Level FlightAware
04:38AM 34.7160 -110.1210 82° East 510 587 41,000  Level FlightAware
04:38AM 34.7290 -110.0110 82° East 510 587 41,000  Level FlightAware
04:39AM 34.7420 -109.8910 82° East 510 587 41,000  Level FlightAware
04:40AM 34.7570 -109.7620 82° East 513 590 41,000  Level FlightAware
04:41AM 34.7720 -109.6270 82° East 513 590 41,000  Level FlightAware
04:41AM 34.7810 -109.5440 82° East 513 590 41,000  Level FlightAware
04:42AM 34.8000 -109.3640 83° East 514 592 41,000  Level FlightAware
04:43AM 34.8120 -109.2480 83° East 517 595 41,000  Level FlightAware
04:44AM 34.8250 -109.1270 83° East 520 598 41,000  Level FlightAware
04:45AM 34.8470 -108.9150 83° East 522 601 41,000  Level FlightAware
04:46AM 34.8590 -108.8110 82° East 522 601 41,000  Level FlightAware
04:46AM 34.8690 -108.7220 82° East 522 601 41,000  Level FlightAware
04:47AM 34.8820 -108.6030 82° East 522 601 41,000  Level FlightAware
04:48AM 34.8950 -108.4310 85° East 526 605 41,000  Level FlightAware
04:49AM 34.8940 -108.2260 90° East 523 602 41,000  Level FlightAware
04:49AM 34.8890 -108.1390 94° East 523 602 41,000  Level FlightAware
04:50AM 34.8870 -108.1090 95° East 523 602 41,000  Level FlightAware
04:51AM 34.8760 -107.9140 94° East 523 602 41,000  Level FlightAware
04:52AM 34.7980 -107.7370 118° Southeast 523 602 41,000  Level FlightAware
04:52AM 34.7800 -107.6390 103° East 525 604 41,000  Level FlightAware
04:53AM 34.7510 -107.4880 103° East 529 609 41,000  Level FlightAware
04:54AM 34.7310 -107.3800 103° East 529 609 41,000  Level FlightAware
04:54AM 34.7060 -107.2510 103° East 528 608 41,000  Level FlightAware
04:55AM 34.6840 -107.1320 103° East 529 609 41,000  Level FlightAware
04:56AM 34.6620 -107.0170 103° East 528 608 41,000  Level FlightAware
04:56AM 34.6380 -106.8940 103° East 528 608 41,000  Level FlightAware
04:57AM 34.6150 -106.7610 102° East 529 609 41,000  Level FlightAware
04:58AM 34.5950 -106.6470 102° East 528 608 41,000  Level FlightAware
04:59AM 34.5740 -106.5240 102° East 523 602 41,000  Level FlightAware
04:59AM 34.5530 -106.4100 103° East 522 601 41,000  Level FlightAware
05:00AM 34.5340 -106.3010 102° East 519 597 41,000  Level FlightAware
05:01AM 34.4986 -106.1080 102° East 519 597 41,000  Level FlightAware ADS-B
05:02AM 34.4831 -106.0230 102° East 513 590 41,000  Level FlightAware ADS-B
05:02AM 34.4673 -105.9360 102° East 515 593 41,000  Level FlightAware ADS-B
05:03AM 34.4518 -105.8520 103° East 512 589 41,000  Level FlightAware ADS-B
05:03AM 34.4359 -105.7650 102° East 511 588 41,000  Level FlightAware ADS-B
05:04AM 34.4202 -105.6810 103° East 510 587 41,000  Level FlightAware ADS-B
05:04AM 34.4029 -105.5880 103° East 509 586 41,000  Level FlightAware ADS-B
05:05AM 34.3873 -105.5040 103° East 509 586 41,000  Level FlightAware ADS-B
05:05AM 34.3710 -105.4170 103° East 508 585 41,000  Level FlightAware ADS-B
05:06AM 34.3531 -105.3220 103° East 506 582 41,000  Level FlightAware ADS-B
05:11AM 34.1912 -104.4810 103° East 508 585 41,000  Level FlightAware ADS-B
05:11AM 34.1748 -104.3970 103° East 509 586 41,000  Level FlightAware ADS-B
05:12AM 34.1582 -104.3130 103° East 512 589 41,000  Level FlightAware ADS-B
05:12AM 34.1416 -104.2290 103° East 514 592 41,000  Level FlightAware ADS-B
05:13AM 34.1238 -104.1400 104° East 515 593 41,000  Level FlightAware ADS-B
05:13AM 34.1066 -104.0540 104° East 519 597 41,000  Level FlightAware ADS-B
05:14AM 34.0849 -103.9460 104° East 520 598 41,000  Level FlightAware ADS-B
05:15AM 34.0664 -103.8540 104° East 523 602 41,000  Level FlightAware ADS-B
05:15AM 34.0486 -103.7660 104° East 521 600 41,000  Level FlightAware ADS-B
05:16AM 34.0277 -103.6620 104° East 523 602 41,000  Level FlightAware ADS-B
05:16AM 34.0099 -103.5750 104° East 523 602 41,000  Level FlightAware ADS-B
05:17AM 33.9924 -103.4900 104° East 522 601 41,000  Level FlightAware ADS-B
05:17AM 33.9738 -103.4000 104° East 524 603 41,000  Level FlightAware ADS-B
05:18AM 33.9560 -103.3130 104° East 523 602 41,000  Level FlightAware ADS-B
05:18AM 33.9381 -103.2270 104° East 526 605 41,000  Level FlightAware ADS-B
05:19AM 33.9203 -103.1410 104° East 528 608 41,000  Level FlightAware ADS-B
05:19AM 33.9025 -103.0560 104° East 529 609 41,000  Level FlightAware ADS-B
05:20AM 33.8844 -102.9700 104° East 529 609 41,000  Level FlightAware ADS-B
05:20AM 33.8663 -102.8840 104° East 528 608 41,000  Level FlightAware ADS-B
05:21AM 33.8477 -102.7950 104° East 528 608 41,000  Level FlightAware ADS-B
05:21AM 33.8295 -102.7090 104° East 528 608 41,000  Level FlightAware ADS-B
05:22AM 33.8112 -102.6240 105° East 528 608 41,000  Level FlightAware ADS-B
05:22AM 33.7931 -102.5380 104° East 524 603 41,000  Level FlightAware ADS-B
05:23AM 33.7749 -102.4530 104° East 524 603 41,000  Level FlightAware ADS-B
05:23AM 33.7567 -102.3690 105° East 523 602 41,000  Level FlightAware ADS-B
05:24AM 33.7449 -102.3160 105° East 522 601 41,000  Level FlightAware ADS-B
05:24AM 33.7319 -102.2710 109° East 519 597 41,000  Level FlightAware ADS-B
05:24AM 33.7193 -102.2370 114° Southeast 517 595 41,000  Level FlightAware ADS-B
05:25AM 33.6969 -102.1890 119° Southeast 515 593 41,000  Level FlightAware ADS-B
05:25AM 33.6552 -102.1100 122° Southeast 515 593 41,000  Level FlightAware ADS-B
05:26AM 33.6165 -102.0360 122° Southeast 517 595 41,000  Level FlightAware ADS-B
05:26AM 33.5777 -101.9620 122° Southeast 519 597 41,000  Level FlightAware ADS-B
05:27AM 33.5381 -101.8870 122° Southeast 519 597 41,000  Level FlightAware ADS-B
05:27AM 33.4991 -101.8140 123° Southeast 520 598 41,000  Level FlightAware ADS-B
05:28AM 33.4548 -101.7300 122° Southeast 520 598 41,000  Level FlightAware ADS-B
05:28AM 33.4145 -101.6550 123° Southeast 520 598 41,000  Level FlightAware ADS-B
05:29AM 33.3748 -101.5800 122° Southeast 519 597 41,000  Level FlightAware ADS-B
05:29AM 33.3347 -101.5050 123° Southeast 521 600 41,000  Level FlightAware ADS-B
05:34AM 32.9396 -100.7740 123° Southeast 521 600 41,000  Level FlightAware ADS-B
05:35AM 32.8993 -100.7000 123° Southeast 525 604 41,000  Level FlightAware ADS-B
05:35AM 32.8559 -100.6210 123° Southeast 525 604 41,000  Level FlightAware ADS-B
05:36AM 32.8115 -100.5400 123° Southeast 528 608 41,000  Level FlightAware ADS-B
05:37AM 32.7554 -100.4380 123° Southeast 525 604 41,000  Level FlightAware ADS-B
05:37AM 32.7000 -100.3380 123° Southeast 526 605 41,000  Level FlightAware
05:38AM 32.6520 -100.2500 123° Southeast 525 604 41,000  Level FlightAware
05:39AM 32.5640 -100.0920 123° Southeast 520 598 41,000  Level FlightAware
05:40AM 32.5140 -100.0020 123° Southeast 519 597 41,000  Level FlightAware
05:40AM 32.4647 -99.9143 124° Southeast 520 598 41,000  Level FlightAware ADS-B
05:41AM 32.4204 -99.8350 123° Southeast 513 590 41,000  Level FlightAware ADS-B
05:41AM 32.3782 -99.7598 124° Southeast 512 589 41,000  Level FlightAware ADS-B
05:42AM 32.3388 -99.6894 124° Southeast 502 578 41,000  Level FlightAware ADS-B
05:42AM 32.3004 -99.6212 124° Southeast 500 575 41,000  Level FlightAware ADS-B
05:42AM 32.2924 -99.6072 124° Southeast 500 575 41,000  Level FlightAware ADS-B
05:43AM 32.2614 -99.5522 124° Southeast 500 575 41,000  Level FlightAware ADS-B
05:43AM 32.2517 -99.5350 124° Southeast 500 575 41,000  Level FlightAware ADS-B
05:44AM 32.1720 -99.3940 124° Southeast 499 574 41,000  Level FlightAware
05:45AM 32.1120 -99.2870 123° Southeast 501 577 41,000  Level FlightAware
05:45AM 32.0765 -99.2257 124° Southeast 501 577 41,000  Level FlightAware ADS-B
05:46AM 32.0288 -99.1419 124° Southeast 500 575 41,000  Level FlightAware ADS-B
05:46AM 31.9873 -99.0696 124° Southeast 497 572 41,000  Level FlightAware ADS-B
05:47AM 31.9490 -99.0020 124° Southeast 493 567 41,000  Level FlightAware
05:48AM 31.8959 -98.9096 124° Southeast 493 567 41,000  Level FlightAware ADS-B
05:48AM 31.8470 -98.8240 124° Southeast 491 565 41,000  Level FlightAware
05:49AM 31.7940 -98.7320 124° Southeast 497 572 41,000  Level FlightAware
05:49AM 31.7615 -98.6755 124° Southeast 500 575 41,000  Level FlightAware ADS-B
05:50AM 31.7151 -98.5937 124° Southeast 500 575 41,000  Level FlightAware ADS-B
05:50AM 31.6760 -98.5251 124° Southeast 501 577 41,000  Level FlightAware ADS-B
05:51AM 31.6233 -98.4329 124° Southeast 502 578 41,000  Level FlightAware ADS-B
05:52AM 31.5840 -98.3645 124° Southeast 502 578 41,000  Level FlightAware ADS-B
05:52AM 31.5445 -98.2955 124° Southeast 502 578 41,000  Level FlightAware ADS-B
05:53AM 31.5048 -98.2262 124° Southeast 500 575 41,000  Level FlightAware ADS-B
05:53AM 31.4659 -98.1588 124° Southeast 502 578 41,000  Level FlightAware ADS-B
05:54AM 31.4144 -98.0696 124° Southeast 503 579 41,000  Level FlightAware ADS-B
05:54AM 31.3749 -98.0014 124° Southeast 501 577 41,000  Level FlightAware ADS-B
05:55AM 31.3358 -97.9341 124° Southeast 498 573 41,000 -540 Level FlightAware ADS-B
05:55AM 31.2960 -97.8653 124° Southeast 497 572 40,500 -1,500 Descending FlightAware ADS-B
05:56AM 31.2560 -97.7965 124° Southeast 503 579 39,500 -1,800 Descending FlightAware ADS-B
05:56AM 31.2161 -97.7281 124° Southeast 505 581 38,700 -1,800 Descending FlightAware ADS-B
05:57AM 31.1758 -97.6589 124° Southeast 509 586 37,700 -1,980 Descending FlightAware ADS-B
05:57AM 31.1354 -97.5900 124° Southeast 515 593 36,700 -2,040 Descending FlightAware ADS-B
05:58AM 31.0935 -97.5185 124° Southeast 520 598 35,600 -2,580 Descending FlightAware ADS-B
05:58AM 31.0519 -97.4476 124° Southeast 522 601 34,100 -3,060 Descending FlightAware ADS-B
05:59AM 31.0099 -97.3758 124° Southeast 526 605 32,500 -3,180 Descending FlightAware ADS-B
05:59AM 30.9683 -97.3050 124° Southeast 529 609 30,900 -2,880 Descending FlightAware ADS-B
06:00AM 30.9264 -97.2338 124° Southeast 526 605 29,600 -2,400 Descending FlightAware ADS-B
06:00AM 30.8849 -97.1637 125° Southeast 516 594 28,500 -2,340 Descending FlightAware ADS-B
06:01AM 30.8447 -97.0958 125° Southeast 509 586 27,300 -2,400 Descending FlightAware ADS-B
06:01AM 30.8044 -97.0277 125° Southeast 501 577 26,100 -2,340 Descending FlightAware ADS-B
06:02AM 30.7652 -96.9618 125° Southeast 493 567 25,000 -2,280 Descending FlightAware ADS-B
06:02AM 30.7263 -96.8967 125° Southeast 484 557 23,800 -2,340 Descending FlightAware ADS-B
06:04AM 30.6143 -96.7086 125° Southeast 450 518 20,300 -2,340 Descending FlightAware ADS-B
06:04AM 30.5791 -96.6500 125° Southeast 438 504 19,200 -2,220 Descending FlightAware ADS-B
06:05AM 30.5113 -96.5376 125° Southeast 419 482 17,000 -2,160 Descending FlightAware ADS-B
06:06AM 30.4454 -96.4280 125° Southeast 406 467 14,900 -2,160 Descending FlightAware ADS-B
06:07AM 30.4129 -96.3735 125° Southeast 398 458 13,800 -2,160 Descending FlightAware ADS-B
06:08AM 30.3503 -96.2700 125° Southeast 386 444 11,600 -1,800 Descending FlightAware ADS-B
06:09AM 30.3197 -96.2196 125° Southeast 368 423 11,100 -840 Descending FlightAware ADS-B
06:09AM 30.2914 -96.1729 125° Southeast 341 392 10,800 -600 Descending FlightAware ADS-B
06:11AM 30.2173 -96.0508 125° Southeast 286 329 10,000 -780 Descending FlightAware ADS-B
06:11AM 30.1831 -95.9947 125° Southeast 281 323 9,100 -1,200 Descending FlightAware ADS-B
06:12AM 30.1718 -95.9761 125° Southeast 280 322 8,800 -1,140 Descending FlightAware ADS-B
06:12AM 30.1593 -95.9556 125° Southeast 279 321 8,500 -1,080 Descending FlightAware ADS-B